sensor_id;sensor_type;location;lat;lon;timestamp;pressure;altitude;pressure_sealevel;temperature;humidity
56006;BME280;41888;44.696;10.522;2023-05-11T00:00:53;100130.56;;;12.26;100.00
56006;BME280;41888;44.696;10.522;2023-05-11T00:03:28;100130.09;;;12.11;100.00
56006;BME280;41888;44.696;10.522;2023-05-11T00:05:55;100126.13;;;12.20;100.00
56006;BME280;41888;44.696;10.522;2023-05-11T00:08:21;100118.31;;;12.19;100.00
56006;BME280;41888;44.696;10.522;2023-05-11T00:10:47;100116.13;;;12.16;100.00
56006;BME280;41888;44.696;10.522;2023-05-11T00:13:14;100118.19;;;12.14;100.00
56006;BME280;41888;44.696;10.522;2023-05-11T00:15:40;100112.38;;;12.17;100.00
56006;BME280;41888;44.696;10.522;2023-05-11T00:18:07;100111.97;;;12.20;100.00
56006;BME280;41888;44.696;10.522;2023-05-11T00:20:33;100123.75;;;12.31;100.00
56006;BME280;41888;44.696;10.522;2023-05-11T00:22:59;100117.72;;;12.17;100.00
56006;BME280;41888;44.696;10.522;2023-05-11T00:25:25;100109.28;;;12.20;100.00
56006;BME280;41888;44.696;10.522;2023-05-11T00:27:52;100102.94;;;12.21;100.00
56006;BME280;41888;44.696;10.522;2023-05-11T00:30:18;100101.34;;;12.13;100.00
56006;BME280;41888;44.696;10.522;2023-05-11T00:32:44;100099.56;;;12.07;100.00
56006;BME280;41888;44.696;10.522;2023-05-11T00:35:11;100097.78;;;12.01;100.00
56006;BME280;41888;44.696;10.522;2023-05-11T00:37:38;100103.44;;;12.11;100.00
56006;BME280;41888;44.696;10.522;2023-05-11T00:40:05;100106.41;;;12.03;100.00
56006;BME280;41888;44.696;10.522;2023-05-11T00:42:32;100095.72;;;12.03;100.00
56006;BME280;41888;44.696;10.522;2023-05-11T00:44:58;100088.25;;;12.12;100.00
56006;BME280;41888;44.696;10.522;2023-05-11T00:47:24;100088.38;;;12.17;100.00
56006;BME280;41888;44.696;10.522;2023-05-11T00:49:52;100089.81;;;12.19;100.00
56006;BME280;41888;44.696;10.522;2023-05-11T00:52:19;100083.28;;;12.15;100.00
56006;BME280;41888;44.696;10.522;2023-05-11T00:54:47;100090.19;;;12.05;100.00
56006;BME280;41888;44.696;10.522;2023-05-11T00:57:18;100091.50;;;12.14;100.00
56006;BME280;41888;44.696;10.522;2023-05-11T00:59:51;100084.72;;;12.00;100.00
56006;BME280;41888;44.696;10.522;2023-05-11T01:02:17;100088.91;;;12.07;100.00
56006;BME280;41888;44.696;10.522;2023-05-11T01:04:44;100081.94;;;12.06;100.00
56006;BME280;41888;44.696;10.522;2023-05-11T01:07:23;100082.03;;;12.00;100.00
56006;BME280;41888;44.696;10.522;2023-05-11T01:09:59;100073.81;;;12.01;100.00
56006;BME280;41888;44.696;10.522;2023-05-11T01:12:44;100078.84;;;11.91;100.00
56006;BME280;41888;44.696;10.522;2023-05-11T01:15:27;100087.72;;;11.85;100.00
56006;BME280;41888;44.696;10.522;2023-05-11T01:18:05;100085.44;;;11.89;100.00
56006;BME280;41888;44.696;10.522;2023-05-11T01:20:34;100083.59;;;11.89;100.00
56006;BME280;41888;44.696;10.522;2023-05-11T01:32:12;100079.34;;;11.81;100.00
56006;BME280;41888;44.696;10.522;2023-05-11T01:34:41;100079.56;;;11.80;100.00
56006;BME280;41888;44.696;10.522;2023-05-11T01:37:21;100082.84;;;11.82;100.00
56006;BME280;41888;44.696;10.522;2023-05-11T01:39:51;100074.69;;;11.77;100.00
56006;BME280;41888;44.696;10.522;2023-05-11T01:42:23;100077.22;;;11.65;100.00
56006;BME280;41888;44.696;10.522;2023-05-11T01:44:53;100073.91;;;11.70;100.00
56006;BME280;41888;44.696;10.522;2023-05-11T01:47:22;100073.66;;;11.78;100.00
56006;BME280;41888;44.696;10.522;2023-05-11T01:49:51;100077.50;;;11.82;100.00
56006;BME280;41888;44.696;10.522;2023-05-11T01:52:20;100078.13;;;11.84;100.00
56006;BME280;41888;44.696;10.522;2023-05-11T01:54:49;100073.09;;;11.69;100.00
56006;BME280;41888;44.696;10.522;2023-05-11T01:57:17;100077.00;;;11.73;100.00
56006;BME280;41888;44.696;10.522;2023-05-11T01:59:45;100071.25;;;11.70;100.00
56006;BME280;41888;44.696;10.522;2023-05-11T02:02:12;100072.88;;;11.71;100.00
56006;BME280;41888;44.696;10.522;2023-05-11T02:04:39;100075.13;;;11.74;100.00
56006;BME280;41888;44.696;10.522;2023-05-11T02:07:08;100069.00;;;11.73;100.00
56006;BME280;41888;44.696;10.522;2023-05-11T02:09:36;100074.09;;;11.75;100.00
56006;BME280;41888;44.696;10.522;2023-05-11T02:12:04;100074.84;;;11.82;100.00
56006;BME280;41888;44.696;10.522;2023-05-11T02:14:33;100075.13;;;11.74;100.00
56006;BME280;41888;44.696;10.522;2023-05-11T02:17:02;100074.69;;;11.77;100.00
56006;BME280;41888;44.696;10.522;2023-05-11T02:19:33;100074.91;;;11.75;100.00
56006;BME280;41888;44.696;10.522;2023-05-11T02:22:01;100079.84;;;11.72;100.00
56006;BME280;41888;44.696;10.522;2023-05-11T02:24:29;100076.69;;;11.81;100.00
56006;BME280;41888;44.696;10.522;2023-05-11T02:26:56;100069.38;;;11.77;100.00
56006;BME280;41888;44.696;10.522;2023-05-11T02:29:24;100072.19;;;11.82;100.00
56006;BME280;41888;44.696;10.522;2023-05-11T02:32:08;100067.88;;;11.81;100.00
56006;BME280;41888;44.696;10.522;2023-05-11T02:34:42;100071.81;;;11.78;100.00
56006;BME280;41888;44.696;10.522;2023-05-11T02:37:13;100057.56;;;11.84;100.00
56006;BME280;41888;44.696;10.522;2023-05-11T02:39:43;100064.84;;;11.77;100.00
56006;BME280;41888;44.696;10.522;2023-05-11T02:42:20;100060.19;;;11.73;100.00
56006;BME280;41888;44.696;10.522;2023-05-11T02:45:07;100063.84;;;11.72;100.00
56006;BME280;41888;44.696;10.522;2023-05-11T02:47:47;100061.00;;;11.73;100.00
56006;BME280;41888;44.696;10.522;2023-05-11T02:50:18;100068.19;;;11.73;100.00
56006;BME280;41888;44.696;10.522;2023-05-11T02:52:45;100055.00;;;11.78;100.00
56006;BME280;41888;44.696;10.522;2023-05-11T02:55:15;100051.34;;;11.72;100.00
56006;BME280;41888;44.696;10.522;2023-05-11T02:57:43;100047.84;;;11.72;100.00
56006;BME280;41888;44.696;10.522;2023-05-11T03:00:10;100049.91;;;11.70;100.00
56006;BME280;41888;44.696;10.522;2023-05-11T03:02:37;100046.75;;;11.79;100.00
56006;BME280;41888;44.696;10.522;2023-05-11T03:05:04;100050.75;;;11.70;100.00
56006;BME280;41888;44.696;10.522;2023-05-11T03:07:33;100046.84;;;11.73;100.00
56006;BME280;41888;44.696;10.522;2023-05-11T03:10:01;100044.38;;;11.71;100.00
56006;BME280;41888;44.696;10.522;2023-05-11T03:12:28;100046.28;;;11.64;100.00
56006;BME280;41888;44.696;10.522;2023-05-11T03:14:58;100048.38;;;11.62;100.00
56006;BME280;41888;44.696;10.522;2023-05-11T03:17:27;100046.94;;;11.60;100.00
56006;BME280;41888;44.696;10.522;2023-05-11T03:19:55;100044.50;;;11.58;100.00
56006;BME280;41888;44.696;10.522;2023-05-11T03:22:22;100044.28;;;11.60;100.00
56006;BME280;41888;44.696;10.522;2023-05-11T03:24:49;100042.38;;;11.67;100.00
56006;BME280;41888;44.696;10.522;2023-05-11T03:27:17;100041.19;;;11.63;100.00
56006;BME280;41888;44.696;10.522;2023-05-11T03:29:43;100042.22;;;11.62;100.00
56006;BME280;41888;44.696;10.522;2023-05-11T03:32:11;100042.22;;;11.62;100.00
56006;BME280;41888;44.696;10.522;2023-05-11T03:34:38;100037.19;;;11.72;100.00
56006;BME280;41888;44.696;10.522;2023-05-11T03:37:05;100030.91;;;11.66;100.00
56006;BME280;41888;44.696;10.522;2023-05-11T03:39:36;100030.03;;;11.72;100.00
56006;BME280;41888;44.696;10.522;2023-05-11T03:42:05;100033.91;;;11.76;100.00
56006;BME280;41888;44.696;10.522;2023-05-11T03:44:32;100028.28;;;11.60;100.00
56006;BME280;41888;44.696;10.522;2023-05-11T03:47:00;100031.19;;;11.58;100.00
56006;BME280;41888;44.696;10.522;2023-05-11T03:49:30;100030.53;;;11.63;100.00
56006;BME280;41888;44.696;10.522;2023-05-11T03:51:56;100027.88;;;11.63;100.00
56006;BME280;41888;44.696;10.522;2023-05-11T03:54:23;100026.38;;;11.67;100.00
56006;BME280;41888;44.696;10.522;2023-05-11T03:56:49;100034.97;;;11.69;100.00
56006;BME280;41888;44.696;10.522;2023-05-11T03:59:17;100026.97;;;11.69;100.00
56006;BME280;41888;44.696;10.522;2023-05-11T04:01:43;100026.75;;;11.70;100.00
56006;BME280;41888;44.696;10.522;2023-05-11T04:04:09;100022.31;;;11.64;100.00
56006;BME280;41888;44.696;10.522;2023-05-11T04:06:36;100023.28;;;11.70;100.00
56006;BME280;41888;44.696;10.522;2023-05-11T04:09:03;100026.53;;;11.72;100.00
56006;BME280;41888;44.696;10.522;2023-05-11T04:11:29;100027.97;;;11.74;100.00
56006;BME280;41888;44.696;10.522;2023-05-11T04:13:55;100028.34;;;11.78;100.00
56006;BME280;41888;44.696;10.522;2023-05-11T04:16:21;100020.22;;;11.73;100.00
56006;BME280;41888;44.696;10.522;2023-05-11T04:18:48;100022.88;;;11.73;100.00
56006;BME280;41888;44.696;10.522;2023-05-11T04:21:14;100031.59;;;11.80;100.00
56006;BME280;41888;44.696;10.522;2023-05-11T04:23:41;100023.84;;;11.78;100.00
56006;BME280;41888;44.696;10.522;2023-05-11T04:26:07;100024.47;;;11.74;100.00
56006;BME280;41888;44.696;10.522;2023-05-11T04:28:33;100021.41;;;11.70;100.00
56006;BME280;41888;44.696;10.522;2023-05-11T04:30:59;100019.88;;;11.63;100.00
56006;BME280;41888;44.696;10.522;2023-05-11T04:33:25;100018.38;;;11.73;100.00
56006;BME280;41888;44.696;10.522;2023-05-11T04:35:53;100017.69;;;11.78;100.00
56006;BME280;41888;44.696;10.522;2023-05-11T04:38:20;100016.81;;;11.84;100.00
56006;BME280;41888;44.696;10.522;2023-05-11T04:40:47;100010.88;;;11.82;100.00
56006;BME280;41888;44.696;10.522;2023-05-11T04:43:15;100012.72;;;11.81;100.00
56006;BME280;41888;44.696;10.522;2023-05-11T04:45:46;100019.69;;;11.82;100.00
56006;BME280;41888;44.696;10.522;2023-05-11T04:48:12;100010.56;;;11.90;100.00
56006;BME280;41888;44.696;10.522;2023-05-11T04:50:38;100010.19;;;11.87;100.00
56006;BME280;41888;44.696;10.522;2023-05-11T04:53:05;100018.69;;;11.95;100.00
56006;BME280;41888;44.696;10.522;2023-05-11T04:55:31;100018.91;;;12.12;100.00
56006;BME280;41888;44.696;10.522;2023-05-11T04:57:57;100021.44;;;12.07;100.00
56006;BME280;41888;44.696;10.522;2023-05-11T05:00:23;100023.41;;;12.11;100.00
56006;BME280;41888;44.696;10.522;2023-05-11T05:02:49;100020.00;;;12.22;100.00
56006;BME280;41888;44.696;10.522;2023-05-11T05:05:17;100023.34;;;12.18;100.00
56006;BME280;41888;44.696;10.522;2023-05-11T05:07:43;100027.03;;;12.17;100.00
56006;BME280;41888;44.696;10.522;2023-05-11T05:10:09;100017.13;;;12.24;100.00
56006;BME280;41888;44.696;10.522;2023-05-11T05:12:38;100023.06;;;12.38;100.00
56006;BME280;41888;44.696;10.522;2023-05-11T05:15:05;100024.13;;;12.37;100.00
56006;BME280;41888;44.696;10.522;2023-05-11T05:17:31;100017.84;;;12.31;100.00
56006;BME280;41888;44.696;10.522;2023-05-11T05:19:58;100027.16;;;12.40;100.00
56006;BME280;41888;44.696;10.522;2023-05-11T05:22:24;100033.13;;;12.54;100.00
56006;BME280;41888;44.696;10.522;2023-05-11T05:24:51;100023.13;;;12.49;100.00
56006;BME280;41888;44.696;10.522;2023-05-11T05:27:17;100024.06;;;12.55;100.00
56006;BME280;41888;44.696;10.522;2023-05-11T05:29:43;100020.84;;;12.53;100.00
56006;BME280;41888;44.696;10.522;2023-05-11T05:32:09;100016.66;;;12.57;100.00
56006;BME280;41888;44.696;10.522;2023-05-11T05:34:36;100020.84;;;12.64;100.00
56006;BME280;41888;44.696;10.522;2023-05-11T05:37:02;100017.19;;;12.77;100.00
56006;BME280;41888;44.696;10.522;2023-05-11T05:39:28;100020.31;;;12.86;100.00
56006;BME280;41888;44.696;10.522;2023-05-11T05:41:54;100019.97;;;12.82;100.00
56006;BME280;41888;44.696;10.522;2023-05-11T05:44:20;100013.13;;;12.86;100.00
56006;BME280;41888;44.696;10.522;2023-05-11T05:46:46;100012.44;;;12.91;100.00
56006;BME280;41888;44.696;10.522;2023-05-11T05:49:13;100007.47;;;12.94;100.00
56006;BME280;41888;44.696;10.522;2023-05-11T05:51:39;100019.91;;;13.00;100.00
56006;BME280;41888;44.696;10.522;2023-05-11T05:54:06;100014.91;;;13.04;100.00
56006;BME280;41888;44.696;10.522;2023-05-11T05:56:32;100013.31;;;13.15;100.00
56006;BME280;41888;44.696;10.522;2023-05-11T05:59:00;100009.38;;;13.29;100.00
56006;BME280;41888;44.696;10.522;2023-05-11T06:01:26;100012.03;;;13.29;100.00
56006;BME280;41888;44.696;10.522;2023-05-11T06:03:52;100005.78;;;13.35;100.00
56006;BME280;41888;44.696;10.522;2023-05-11T06:06:19;100013.91;;;13.40;100.00
56006;BME280;41888;44.696;10.522;2023-05-11T06:08:45;100005.75;;;13.58;100.00
56006;BME280;41888;44.696;10.522;2023-05-11T06:11:11;100009.38;;;13.64;100.00
56006;BME280;41888;44.696;10.522;2023-05-11T06:13:38;100011.44;;;13.73;100.00
56006;BME280;41888;44.696;10.522;2023-05-11T06:16:04;100018.84;;;13.83;100.00
56006;BME280;41888;44.696;10.522;2023-05-11T06:18:30;100014.25;;;14.07;100.00
56006;BME280;41888;44.696;10.522;2023-05-11T06:20:57;100011.50;;;14.30;100.00
56006;BME280;41888;44.696;10.522;2023-05-11T06:23:23;100024.59;;;14.71;100.00
56006;BME280;41888;44.696;10.522;2023-05-11T06:25:50;100020.25;;;14.99;100.00
56006;BME280;41888;44.696;10.522;2023-05-11T06:28:16;100021.78;;;14.95;100.00
56006;BME280;41888;44.696;10.522;2023-05-11T06:30:42;100019.56;;;14.92;100.00
56006;BME280;41888;44.696;10.522;2023-05-11T06:33:08;100013.00;;;14.83;100.00
56006;BME280;41888;44.696;10.522;2023-05-11T06:35:38;100019.25;;;14.88;100.00
56006;BME280;41888;44.696;10.522;2023-05-11T06:38:04;100015.69;;;14.99;100.00
56006;BME280;41888;44.696;10.522;2023-05-11T06:40:30;100012.81;;;15.56;100.00
56006;BME280;41888;44.696;10.522;2023-05-11T06:42:56;100014.69;;;15.55;100.00
56006;BME280;41888;44.696;10.522;2023-05-11T06:45:23;100021.50;;;15.46;100.00
56006;BME280;41888;44.696;10.522;2023-05-11T06:47:49;100011.47;;;15.53;100.00
56006;BME280;41888;44.696;10.522;2023-05-11T06:50:15;100025.41;;;15.55;100.00
56006;BME280;41888;44.696;10.522;2023-05-11T06:52:41;100014.81;;;15.66;100.00
56006;BME280;41888;44.696;10.522;2023-05-11T06:55:11;100016.03;;;15.75;100.00
56006;BME280;41888;44.696;10.522;2023-05-11T06:57:39;100022.31;;;15.63;100.00
56006;BME280;41888;44.696;10.522;2023-05-11T07:00:05;100027.81;;;15.74;100.00
56006;BME280;41888;44.696;10.522;2023-05-11T07:02:32;100013.53;;;15.90;100.00
56006;BME280;41888;44.696;10.522;2023-05-11T07:04:58;100024.34;;;15.95;100.00
56006;BME280;41888;44.696;10.522;2023-05-11T07:07:24;100030.00;;;15.98;100.00
56006;BME280;41888;44.696;10.522;2023-05-11T07:09:51;100025.97;;;15.96;100.00
56006;BME280;41888;44.696;10.522;2023-05-11T07:12:17;100034.50;;;16.15;100.00
56006;BME280;41888;44.696;10.522;2023-05-11T07:14:43;100031.94;;;16.25;100.00
56006;BME280;41888;44.696;10.522;2023-05-11T07:17:09;100034.69;;;16.30;100.00
56006;BME280;41888;44.696;10.522;2023-05-11T07:19:35;100022.38;;;16.34;100.00
56006;BME280;41888;44.696;10.522;2023-05-11T07:22:02;100032.38;;;16.38;100.00
56006;BME280;41888;44.696;10.522;2023-05-11T07:24:30;100034.16;;;16.55;100.00
56006;BME280;41888;44.696;10.522;2023-05-11T07:26:56;100032.75;;;16.74;100.00
56006;BME280;41888;44.696;10.522;2023-05-11T07:29:23;100037.06;;;16.75;100.00
56006;BME280;41888;44.696;10.522;2023-05-11T07:31:49;100035.06;;;16.92;100.00
56006;BME280;41888;44.696;10.522;2023-05-11T07:34:15;100031.44;;;17.08;100.00
56006;BME280;41888;44.696;10.522;2023-05-11T07:36:41;100029.88;;;17.12;100.00
56006;BME280;41888;44.696;10.522;2023-05-11T07:39:07;100030.47;;;17.24;100.00
56006;BME280;41888;44.696;10.522;2023-05-11T07:41:34;100027.22;;;17.17;100.00
56006;BME280;41888;44.696;10.522;2023-05-11T07:44:00;100034.66;;;17.42;100.00
56006;BME280;41888;44.696;10.522;2023-05-11T07:46:27;100032.09;;;17.25;100.00
56006;BME280;41888;44.696;10.522;2023-05-11T07:48:53;100032.28;;;17.14;100.00
56006;BME280;41888;44.696;10.522;2023-05-11T07:51:19;100031.25;;;17.20;100.00
56006;BME280;41888;44.696;10.522;2023-05-11T07:53:45;100036.69;;;17.67;100.00
56006;BME280;41888;44.696;10.522;2023-05-11T07:56:12;100030.75;;;17.60;100.00
56006;BME280;41888;44.696;10.522;2023-05-11T07:58:38;100031.84;;;17.64;100.00
56006;BME280;41888;44.696;10.522;2023-05-11T08:01:04;100035.91;;;17.71;100.00
56006;BME280;41888;44.696;10.522;2023-05-11T08:03:31;100034.56;;;17.69;100.00
56006;BME280;41888;44.696;10.522;2023-05-11T08:05:57;100035.13;;;17.71;100.00
56006;BME280;41888;44.696;10.522;2023-05-11T08:08:23;100030.94;;;17.95;100.00
56006;BME280;41888;44.696;10.522;2023-05-11T08:10:50;100038.97;;;17.85;100.00
56006;BME280;41888;44.696;10.522;2023-05-11T08:13:17;100024.91;;;17.73;100.00
56006;BME280;41888;44.696;10.522;2023-05-11T08:15:43;100037.16;;;18.06;100.00
56006;BME280;41888;44.696;10.522;2023-05-11T08:18:10;100031.84;;;18.21;100.00
56006;BME280;41888;44.696;10.522;2023-05-11T08:20:36;100032.91;;;18.20;100.00
56006;BME280;41888;44.696;10.522;2023-05-11T08:23:04;100036.41;;;18.15;100.00
56006;BME280;41888;44.696;10.522;2023-05-11T08:25:30;100026.50;;;18.36;100.00
56006;BME280;41888;44.696;10.522;2023-05-11T08:27:56;100032.69;;;18.37;100.00
56006;BME280;41888;44.696;10.522;2023-05-11T08:30:22;100031.09;;;18.51;100.00
56006;BME280;41888;44.696;10.522;2023-05-11T08:32:49;100035.38;;;18.37;100.00
56006;BME280;41888;44.696;10.522;2023-05-11T08:35:15;100032.38;;;18.13;100.00
56006;BME280;41888;44.696;10.522;2023-05-11T08:37:41;100039.31;;;18.09;100.00
56006;BME280;41888;44.696;10.522;2023-05-11T08:40:09;100037.25;;;17.69;100.00
56006;BME280;41888;44.696;10.522;2023-05-11T08:42:39;100042.41;;;17.76;100.00
56006;BME280;41888;44.696;10.522;2023-05-11T08:45:06;100045.31;;;17.64;100.00
56006;BME280;41888;44.696;10.522;2023-05-11T08:47:33;100035.06;;;17.66;100.00
56006;BME280;41888;44.696;10.522;2023-05-11T08:49:59;100028.91;;;17.65;100.00
56006;BME280;41888;44.696;10.522;2023-05-11T08:52:26;100043.03;;;17.51;100.00
56006;BME280;41888;44.696;10.522;2023-05-11T08:54:55;100032.44;;;17.34;100.00
56006;BME280;41888;44.696;10.522;2023-05-11T08:57:21;100035.41;;;17.38;100.00
56006;BME280;41888;44.696;10.522;2023-05-11T08:59:48;100044.47;;;17.26;100.00
56006;BME280;41888;44.696;10.522;2023-05-11T09:02:16;100039.31;;;17.20;100.00
56006;BME280;41888;44.696;10.522;2023-05-11T09:04:44;100037.38;;;17.10;100.00
56006;BME280;41888;44.696;10.522;2023-05-11T09:07:11;100045.19;;;17.12;100.00
56006;BME280;41888;44.696;10.522;2023-05-11T09:09:40;100042.50;;;17.12;100.00
56006;BME280;41888;44.696;10.522;2023-05-11T09:12:08;100045.88;;;16.97;100.00
56006;BME280;41888;44.696;10.522;2023-05-11T09:14:35;100047.13;;;16.89;100.00
56006;BME280;41888;44.696;10.522;2023-05-11T09:17:01;100036.59;;;16.83;100.00
56006;BME280;41888;44.696;10.522;2023-05-11T09:19:29;100038.75;;;16.81;100.00
56006;BME280;41888;44.696;10.522;2023-05-11T09:21:57;100036.31;;;16.79;100.00
56006;BME280;41888;44.696;10.522;2023-05-11T09:24:23;100035.72;;;16.77;100.00
56006;BME280;41888;44.696;10.522;2023-05-11T09:26:53;100037.69;;;16.60;100.00
56006;BME280;41888;44.696;10.522;2023-05-11T09:29:30;100046.09;;;16.64;100.00
56006;BME280;41888;44.696;10.522;2023-05-11T09:31:57;100044.06;;;16.76;100.00
56006;BME280;41888;44.696;10.522;2023-05-11T09:34:23;100039.19;;;16.73;100.00
56006;BME280;41888;44.696;10.522;2023-05-11T09:36:51;100041.81;;;16.68;100.00
56006;BME280;41888;44.696;10.522;2023-05-11T09:42:14;100033.66;;;16.84;100.00
56006;BME280;41888;44.696;10.522;2023-05-11T09:44:41;100033.84;;;16.78;100.00
56006;BME280;41888;44.696;10.522;2023-05-11T09:47:12;100039.84;;;16.85;100.00
56006;BME280;41888;44.696;10.522;2023-05-11T09:49:42;100037.81;;;16.97;100.00
56006;BME280;41888;44.696;10.522;2023-05-11T09:52:14;100037.19;;;16.90;100.00
56006;BME280;41888;44.696;10.522;2023-05-11T09:57:25;100032.84;;;16.84;100.00
56006;BME280;41888;44.696;10.522;2023-05-11T09:59:52;100038.69;;;16.76;100.00
56006;BME280;41888;44.696;10.522;2023-05-11T10:02:30;100036.50;;;16.73;100.00
56006;BME280;41888;44.696;10.522;2023-05-11T10:04:58;100034.00;;;16.66;100.00
56006;BME280;41888;44.696;10.522;2023-05-11T10:09:59;100042.06;;;16.93;100.00
56006;BME280;41888;44.696;10.522;2023-05-11T10:12:27;100031.13;;;16.73;100.00
56006;BME280;41888;44.696;10.522;2023-05-11T10:15:02;100035.16;;;16.48;100.00
56006;BME280;41888;44.696;10.522;2023-05-11T10:17:29;100032.44;;;16.43;100.00
56006;BME280;41888;44.696;10.522;2023-05-11T10:19:56;100032.44;;;16.43;100.00
56006;BME280;41888;44.696;10.522;2023-05-11T10:22:24;100033.53;;;16.47;100.00
56006;BME280;41888;44.696;10.522;2023-05-11T10:24:51;100032.31;;;16.33;100.00
56006;BME280;41888;44.696;10.522;2023-05-11T10:27:18;100037.53;;;16.23;100.00
56006;BME280;41888;44.696;10.522;2023-05-11T10:29:45;100035.13;;;16.22;100.00
56006;BME280;41888;44.696;10.522;2023-05-11T10:32:11;100037.00;;;16.21;100.00
56006;BME280;41888;44.696;10.522;2023-05-11T10:34:38;100037.34;;;16.30;100.00
56006;BME280;41888;44.696;10.522;2023-05-11T10:37:05;100029.69;;;16.38;100.00
56006;BME280;41888;44.696;10.522;2023-05-11T10:39:32;100033.81;;;16.51;100.00
56006;BME280;41888;44.696;10.522;2023-05-11T10:42:23;100026.47;;;16.41;100.00
56006;BME280;41888;44.696;10.522;2023-05-11T10:48:13;100022.88;;;15.87;100.00
56006;BME280;41888;44.696;10.522;2023-05-11T10:51:15;100019.41;;;16.09;100.00
56006;BME280;41888;44.696;10.522;2023-05-11T10:54:09;100021.47;;;15.80;100.00
56006;BME280;41888;44.696;10.522;2023-05-11T11:02:12;100032.72;;;15.43;100.00
56006;BME280;41888;44.696;10.522;2023-05-11T11:04:45;100041.66;;;15.49;100.00
56006;BME280;41888;44.696;10.522;2023-05-11T11:07:13;100033.72;;;15.20;100.00
56006;BME280;41888;44.696;10.522;2023-05-11T11:09:59;100037.53;;;15.08;100.00
56006;BME280;41888;44.696;10.522;2023-05-11T11:12:26;100031.84;;;15.04;100.00
56006;BME280;41888;44.696;10.522;2023-05-11T11:17:21;100028.63;;;14.57;100.00
56006;BME280;41888;44.696;10.522;2023-05-11T11:19:47;100029.94;;;14.71;100.00
56006;BME280;41888;44.696;10.522;2023-05-11T11:25:10;100035.22;;;14.66;100.00
56006;BME280;41888;44.696;10.522;2023-05-11T11:32:43;100030.09;;;14.48;100.00
56006;BME280;41888;44.696;10.522;2023-05-11T11:38:14;100023.19;;;14.52;100.00
56006;BME280;41888;44.696;10.522;2023-05-11T11:40:50;100025.56;;;14.65;100.00
56006;BME280;41888;44.696;10.522;2023-05-11T11:43:22;100026.94;;;14.68;100.00
56006;BME280;41888;44.696;10.522;2023-05-11T11:48:36;100027.81;;;14.57;100.00
56006;BME280;41888;44.696;10.522;2023-05-11T12:03:38;100014.38;;;14.40;100.00
56006;BME280;41888;44.696;10.522;2023-05-11T12:06:07;100018.25;;;14.32;100.00
56006;BME280;41888;44.696;10.522;2023-05-11T12:08:35;100009.22;;;14.22;100.00
56006;BME280;41888;44.696;10.522;2023-05-11T12:11:04;100012.53;;;14.29;100.00
56006;BME280;41888;44.696;10.522;2023-05-11T12:13:32;100008.91;;;14.35;100.00
56006;BME280;41888;44.696;10.522;2023-05-11T12:16:12;100010.53;;;14.36;100.00
56006;BME280;41888;44.696;10.522;2023-05-11T12:18:39;100011.25;;;14.43;100.00
56006;BME280;41888;44.696;10.522;2023-05-11T12:21:17;100014.38;;;14.40;100.00
56006;BME280;41888;44.696;10.522;2023-05-11T12:23:54;100010.84;;;14.51;100.00
56006;BME280;41888;44.696;10.522;2023-05-11T12:26:22;100008.53;;;14.71;100.00
56006;BME280;41888;44.696;10.522;2023-05-11T12:28:49;100004.75;;;14.84;100.00
56006;BME280;41888;44.696;10.522;2023-05-11T12:31:17;100010.56;;;14.98;100.00
56006;BME280;41888;44.696;10.522;2023-05-11T12:33:50;100009.75;;;14.80;100.00
56006;BME280;41888;44.696;10.522;2023-05-11T12:36:17;100016.91;;;14.92;100.00
56006;BME280;41888;44.696;10.522;2023-05-11T12:38:47;100011.88;;;14.95;100.00
56006;BME280;41888;44.696;10.522;2023-05-11T12:41:23;100021.59;;;15.18;100.00
56006;BME280;41888;44.696;10.522;2023-05-11T12:43:53;100022.91;;;15.15;100.00
56006;BME280;41888;44.696;10.522;2023-05-11T12:46:21;100026.06;;;15.29;100.00
56006;BME280;41888;44.696;10.522;2023-05-11T12:48:49;100030.94;;;15.49;100.00
56006;BME280;41888;44.696;10.522;2023-05-11T12:51:47;100024.19;;;15.63;100.00
56006;BME280;41888;44.696;10.522;2023-05-11T12:54:30;100024.09;;;15.96;100.00
56006;BME280;41888;44.696;10.522;2023-05-11T12:56:57;100022.75;;;15.77;100.00
56006;BME280;41888;44.696;10.522;2023-05-11T12:59:32;100016.41;;;15.83;100.00
56006;BME280;41888;44.696;10.522;2023-05-11T13:02:09;100018.09;;;16.11;100.00
56006;BME280;41888;44.696;10.522;2023-05-11T13:04:37;100019.31;;;16.25;100.00
56006;BME280;41888;44.696;10.522;2023-05-11T13:07:04;100018.66;;;16.40;100.00
56006;BME280;41888;44.696;10.522;2023-05-11T13:09:30;100019.06;;;16.75;100.00
56006;BME280;41888;44.696;10.522;2023-05-11T13:12:16;100023.56;;;16.97;100.00
56006;BME280;41888;44.696;10.522;2023-05-11T13:14:48;100027.19;;;17.12;100.00
56006;BME280;41888;44.696;10.522;2023-05-11T13:17:35;100025.06;;;17.19;100.00
56006;BME280;41888;44.696;10.522;2023-05-11T13:20:30;100014.38;;;17.29;100.00
56006;BME280;41888;44.696;10.522;2023-05-11T13:23:04;100013.19;;;17.10;100.00
56006;BME280;41888;44.696;10.522;2023-05-11T13:25:32;100014.59;;;16.86;100.00
56006;BME280;41888;44.696;10.522;2023-05-11T13:27:58;100006.06;;;16.94;100.00
56006;BME280;41888;44.696;10.522;2023-05-11T13:30:26;100007.72;;;16.68;100.00
56006;BME280;41888;44.696;10.522;2023-05-11T13:32:52;100008.78;;;16.67;100.00